sensor_id;sensor_type;location;lat;lon;timestamp;P1;durP1;ratioP1;P2;durP2;ratioP2
32329;SDS011;18807;52.434;13.238;2023-06-19T00:01:22;11.52;;;10.32;;
32329;SDS011;18807;52.434;13.238;2023-06-19T00:08:57;12.32;;;10.70;;
32329;SDS011;18807;52.434;13.238;2023-06-19T00:16:32;12.53;;;11.33;;
32329;SDS011;18807;52.434;13.238;2023-06-19T00:24:06;12.77;;;11.45;;
32329;SDS011;18807;52.434;13.238;2023-06-19T00:31:42;12.33;;;10.97;;
32329;SDS011;18807;52.434;13.238;2023-06-19T00:39:16;12.55;;;11.25;;
32329;SDS011;18807;52.434;13.238;2023-06-19T00:46:54;13.03;;;11.73;;
32329;SDS011;18807;52.434;13.238;2023-06-19T00:54:32;12.68;;;11.45;;
32329;SDS011;18807;52.434;13.238;2023-06-19T01:02:08;12.53;;;10.97;;
32329;SDS011;18807;52.434;13.238;2023-06-19T01:09:43;13.02;;;11.70;;
32329;SDS011;18807;52.434;13.238;2023-06-19T01:17:23;12.95;;;11.57;;
32329;SDS011;18807;52.434;13.238;2023-06-19T01:25:00;13.88;;;12.20;;
32329;SDS011;18807;52.434;13.238;2023-06-19T01:32:36;13.27;;;11.88;;
32329;SDS011;18807;52.434;13.238;2023-06-19T01:40:19;14.52;;;11.90;;
32329;SDS011;18807;52.434;13.238;2023-06-19T01:47:58;14.85;;;11.88;;
32329;SDS011;18807;52.434;13.238;2023-06-19T01:55:33;16.47;;;13.47;;
32329;SDS011;18807;52.434;13.238;2023-06-19T02:03:08;16.35;;;13.23;;
32329;SDS011;18807;52.434;13.238;2023-06-19T02:10:43;14.77;;;12.50;;
32329;SDS011;18807;52.434;13.238;2023-06-19T02:18:17;19.45;;;13.90;;
32329;SDS011;18807;52.434;13.238;2023-06-19T02:25:53;19.98;;;14.35;;
32329;SDS011;18807;52.434;13.238;2023-06-19T02:33:27;20.33;;;14.65;;
32329;SDS011;18807;52.434;13.238;2023-06-19T02:41:02;21.23;;;15.17;;
32329;SDS011;18807;52.434;13.238;2023-06-19T02:48:36;18.35;;;13.70;;
32329;SDS011;18807;52.434;13.238;2023-06-19T02:56:12;18.88;;;13.93;;
32329;SDS011;18807;52.434;13.238;2023-06-19T03:03:46;14.95;;;13.45;;
32329;SDS011;18807;52.434;13.238;2023-06-19T03:11:22;15.57;;;13.97;;
32329;SDS011;18807;52.434;13.238;2023-06-19T03:18:56;18.33;;;14.70;;
32329;SDS011;18807;52.434;13.238;2023-06-19T03:26:31;18.10;;;15.30;;
32329;SDS011;18807;52.434;13.238;2023-06-19T03:34:05;16.38;;;14.65;;
32329;SDS011;18807;52.434;13.238;2023-06-19T03:41:41;16.27;;;14.63;;
32329;SDS011;18807;52.434;13.238;2023-06-19T03:49:15;18.25;;;16.02;;
32329;SDS011;18807;52.434;13.238;2023-06-19T03:56:51;17.63;;;15.63;;
32329;SDS011;18807;52.434;13.238;2023-06-19T04:04:25;16.25;;;14.65;;
32329;SDS011;18807;52.434;13.238;2023-06-19T04:12:01;19.40;;;17.17;;
32329;SDS011;18807;52.434;13.238;2023-06-19T04:19:53;16.75;;;15.05;;
32329;SDS011;18807;52.434;13.238;2023-06-19T04:27:28;18.08;;;16.20;;
32329;SDS011;18807;52.434;13.238;2023-06-19T04:35:02;18.08;;;16.23;;
32329;SDS011;18807;52.434;13.238;2023-06-19T04:42:38;16.88;;;15.18;;
32329;SDS011;18807;52.434;13.238;2023-06-19T04:50:12;16.48;;;14.80;;
32329;SDS011;18807;52.434;13.238;2023-06-19T04:57:49;17.17;;;14.77;;
32329;SDS011;18807;52.434;13.238;2023-06-19T05:05:23;16.65;;;14.95;;
32329;SDS011;18807;52.434;13.238;2023-06-19T05:12:59;18.20;;;15.50;;
32329;SDS011;18807;52.434;13.238;2023-06-19T05:20:34;20.55;;;16.77;;
32329;SDS011;18807;52.434;13.238;2023-06-19T05:28:09;17.93;;;15.80;;
32329;SDS011;18807;52.434;13.238;2023-06-19T05:36:01;22.70;;;17.58;;
32329;SDS011;18807;52.434;13.238;2023-06-19T05:43:37;19.07;;;17.00;;
32329;SDS011;18807;52.434;13.238;2023-06-19T05:51:12;18.33;;;16.52;;
32329;SDS011;18807;52.434;13.238;2023-06-19T05:58:48;17.45;;;15.73;;
32329;SDS011;18807;52.434;13.238;2023-06-19T06:06:39;19.25;;;17.00;;
32329;SDS011;18807;52.434;13.238;2023-06-19T06:14:15;18.88;;;16.90;;
32329;SDS011;18807;52.434;13.238;2023-06-19T06:21:49;18.55;;;16.67;;
32329;SDS011;18807;52.434;13.238;2023-06-19T06:29:25;20.23;;;17.63;;
32329;SDS011;18807;52.434;13.238;2023-06-19T06:36:59;18.00;;;16.17;;
32329;SDS011;18807;52.434;13.238;2023-06-19T06:44:39;18.00;;;15.98;;
32329;SDS011;18807;52.434;13.238;2023-06-19T06:52:14;16.65;;;15.00;;
32329;SDS011;18807;52.434;13.238;2023-06-19T06:59:49;18.50;;;16.42;;
32329;SDS011;18807;52.434;13.238;2023-06-19T07:07:23;21.73;;;15.93;;
32329;SDS011;18807;52.434;13.238;2023-06-19T07:14:59;15.82;;;14.23;;
32329;SDS011;18807;52.434;13.238;2023-06-19T07:22:43;16.25;;;14.63;;
32329;SDS011;18807;52.434;13.238;2023-06-19T07:30:20;15.38;;;13.88;;
32329;SDS011;18807;52.434;13.238;2023-06-19T07:37:54;16.85;;;15.18;;
32329;SDS011;18807;52.434;13.238;2023-06-19T07:45:30;18.77;;;16.70;;
32329;SDS011;18807;52.434;13.238;2023-06-19T07:53:04;17.42;;;15.63;;
32329;SDS011;18807;52.434;13.238;2023-06-19T08:00:39;18.90;;;16.90;;
32329;SDS011;18807;52.434;13.238;2023-06-19T08:08:13;17.23;;;15.48;;
32329;SDS011;18807;52.434;13.238;2023-06-19T08:15:49;17.17;;;15.45;;
32329;SDS011;18807;52.434;13.238;2023-06-19T08:23:23;16.50;;;14.93;;
32329;SDS011;18807;52.434;13.238;2023-06-19T08:30:58;18.67;;;15.77;;
32329;SDS011;18807;52.434;13.238;2023-06-19T08:38:32;20.13;;;15.75;;
32329;SDS011;18807;52.434;13.238;2023-06-19T08:46:09;21.33;;;17.48;;
32329;SDS011;18807;52.434;13.238;2023-06-19T08:53:45;16.20;;;14.52;;
32329;SDS011;18807;52.434;13.238;2023-06-19T09:01:21;19.25;;;16.92;;
32329;SDS011;18807;52.434;13.238;2023-06-19T09:08:59;17.55;;;15.23;;
32329;SDS011;18807;52.434;13.238;2023-06-19T09:16:38;18.70;;;16.80;;
32329;SDS011;18807;52.434;13.238;2023-06-19T09:24:13;16.90;;;15.20;;
32329;SDS011;18807;52.434;13.238;2023-06-19T09:31:49;14.87;;;13.43;;
32329;SDS011;18807;52.434;13.238;2023-06-19T09:39:23;18.27;;;16.42;;
32329;SDS011;18807;52.434;13.238;2023-06-19T09:47:02;21.08;;;18.77;;
32329;SDS011;18807;52.434;13.238;2023-06-19T09:54:40;19.55;;;17.55;;
32329;SDS011;18807;52.434;13.238;2023-06-19T10:02:18;25.27;;;19.20;;
32329;SDS011;18807;52.434;13.238;2023-06-19T10:09:54;20.13;;;17.20;;
32329;SDS011;18807;52.434;13.238;2023-06-19T10:17:31;20.52;;;18.40;;
32329;SDS011;18807;52.434;13.238;2023-06-19T10:25:06;20.20;;;18.02;;
32329;SDS011;18807;52.434;13.238;2023-06-19T10:32:41;19.77;;;17.75;;
32329;SDS011;18807;52.434;13.238;2023-06-19T10:40:16;20.00;;;17.90;;
32329;SDS011;18807;52.434;13.238;2023-06-19T10:47:51;18.88;;;16.33;;
32329;SDS011;18807;52.434;13.238;2023-06-19T10:55:26;21.00;;;18.65;;
32329;SDS011;18807;52.434;13.238;2023-06-19T11:03:01;17.88;;;16.17;;
32329;SDS011;18807;52.434;13.238;2023-06-19T11:10:35;16.98;;;15.20;;
32329;SDS011;18807;52.434;13.238;2023-06-19T11:18:11;17.87;;;16.10;;
32329;SDS011;18807;52.434;13.238;2023-06-19T11:25:48;18.10;;;16.20;;
32329;SDS011;18807;52.434;13.238;2023-06-19T11:33:23;17.43;;;15.77;;
32329;SDS011;18807;52.434;13.238;2023-06-19T11:40:57;17.13;;;15.32;;
32329;SDS011;18807;52.434;13.238;2023-06-19T11:48:32;17.47;;;15.77;;
32329;SDS011;18807;52.434;13.238;2023-06-19T11:56:09;17.00;;;15.40;;
32329;SDS011;18807;52.434;13.238;2023-06-19T12:03:45;17.83;;;15.87;;
32329;SDS011;18807;52.434;13.238;2023-06-19T12:11:19;16.40;;;14.77;;
32329;SDS011;18807;52.434;13.238;2023-06-19T12:18:55;16.70;;;15.10;;
32329;SDS011;18807;52.434;13.238;2023-06-19T12:26:29;16.52;;;14.98;;
32329;SDS011;18807;52.434;13.238;2023-06-19T12:34:10;15.73;;;14.15;;
32329;SDS011;18807;52.434;13.238;2023-06-19T12:42:01;14.32;;;12.85;;
32329;SDS011;18807;52.434;13.238;2023-06-19T12:49:37;15.63;;;14.13;;
32329;SDS011;18807;52.434;13.238;2023-06-19T12:57:11;16.48;;;14.45;;
32329;SDS011;18807;52.434;13.238;2023-06-19T13:04:46;15.50;;;14.10;;
32329;SDS011;18807;52.434;13.238;2023-06-19T13:12:21;15.80;;;13.82;;
32329;SDS011;18807;52.434;13.238;2023-06-19T13:19:57;16.35;;;14.68;;
32329;SDS011;18807;52.434;13.238;2023-06-19T13:27:35;13.80;;;12.50;;
32329;SDS011;18807;52.434;13.238;2023-06-19T13:35:19;14.50;;;13.10;;
32329;SDS011;18807;52.434;13.238;2023-06-19T13:42:54;15.15;;;13.35;;
32329;SDS011;18807;52.434;13.238;2023-06-19T13:50:30;14.48;;;12.30;;
32329;SDS011;18807;52.434;13.238;2023-06-19T13:58:05;12.60;;;11.40;;
32329;SDS011;18807;52.434;13.238;2023-06-19T14:05:41;13.27;;;12.07;;
32329;SDS011;18807;52.434;13.238;2023-06-19T14:13:16;13.65;;;12.25;;
32329;SDS011;18807;52.434;13.238;2023-06-19T14:20:52;14.13;;;12.70;;
32329;SDS011;18807;52.434;13.238;2023-06-19T14:28:26;14.95;;;13.48;;
32329;SDS011;18807;52.434;13.238;2023-06-19T14:36:01;14.32;;;12.93;;
32329;SDS011;18807;52.434;13.238;2023-06-19T14:43:36;16.00;;;14.38;;
32329;SDS011;18807;52.434;13.238;2023-06-19T14:51:13;14.88;;;13.50;;
32329;SDS011;18807;52.434;13.238;2023-06-19T14:58:47;15.15;;;13.57;;
32329;SDS011;18807;52.434;13.238;2023-06-19T15:06:23;15.07;;;13.68;;
32329;SDS011;18807;52.434;13.238;2023-06-19T15:13:57;16.13;;;14.23;;
32329;SDS011;18807;52.434;13.238;2023-06-19T15:21:32;14.20;;;12.80;;
32329;SDS011;18807;52.434;13.238;2023-06-19T15:29:06;13.93;;;12.52;;
32329;SDS011;18807;52.434;13.238;2023-06-19T15:36:42;13.45;;;12.15;;
32329;SDS011;18807;52.434;13.238;2023-06-19T15:44:16;14.32;;;12.98;;
32329;SDS011;18807;52.434;13.238;2023-06-19T15:51:51;15.47;;;13.13;;
32329;SDS011;18807;52.434;13.238;2023-06-19T15:59:26;14.65;;;13.10;;
32329;SDS011;18807;52.434;13.238;2023-06-19T16:07:01;15.57;;;14.03;;
32329;SDS011;18807;52.434;13.238;2023-06-19T16:14:35;15.13;;;13.73;;
32329;SDS011;18807;52.434;13.238;2023-06-19T16:22:10;14.02;;;12.63;;
32329;SDS011;18807;52.434;13.238;2023-06-19T16:29:45;13.57;;;12.32;;
32329;SDS011;18807;52.434;13.238;2023-06-19T16:37:22;14.82;;;13.32;;
32329;SDS011;18807;52.434;13.238;2023-06-19T16:44:56;14.15;;;12.77;;
32329;SDS011;18807;52.434;13.238;2023-06-19T16:52:32;14.13;;;12.68;;
32329;SDS011;18807;52.434;13.238;2023-06-19T17:00:06;14.02;;;12.73;;
32329;SDS011;18807;52.434;13.238;2023-06-19T17:07:46;12.98;;;11.65;;
32329;SDS011;18807;52.434;13.238;2023-06-19T17:15:20;13.18;;;11.52;;
32329;SDS011;18807;52.434;13.238;2023-06-19T17:22:55;12.07;;;10.87;;
32329;SDS011;18807;52.434;13.238;2023-06-19T17:30:29;12.88;;;11.68;;
32329;SDS011;18807;52.434;13.238;2023-06-19T17:38:05;12.73;;;11.43;;
32329;SDS011;18807;52.434;13.238;2023-06-19T17:45:39;12.43;;;11.20;;
32329;SDS011;18807;52.434;13.238;2023-06-19T18:00:48;12.30;;;11.07;;
32329;SDS011;18807;52.434;13.238;2023-06-19T18:08:23;12.03;;;10.93;;
32329;SDS011;18807;52.434;13.238;2023-06-19T18:15:57;12.40;;;11.15;;
32329;SDS011;18807;52.434;13.238;2023-06-19T18:23:45;13.35;;;11.95;;
32329;SDS011;18807;52.434;13.238;2023-06-19T18:31:22;13.82;;;12.52;;
32329;SDS011;18807;52.434;13.238;2023-06-19T18:39:05;14.80;;;13.07;;
32329;SDS011;18807;52.434;13.238;2023-06-19T18:46:44;15.00;;;13.38;;
32329;SDS011;18807;52.434;13.238;2023-06-19T18:54:20;15.50;;;13.90;;
32329;SDS011;18807;52.434;13.238;2023-06-19T19:01:54;14.63;;;13.13;;
32329;SDS011;18807;52.434;13.238;2023-06-19T19:09:30;15.13;;;13.63;;
32329;SDS011;18807;52.434;13.238;2023-06-19T19:17:05;16.20;;;14.60;;
32329;SDS011;18807;52.434;13.238;2023-06-19T19:32:29;16.42;;;14.82;;
32329;SDS011;18807;52.434;13.238;2023-06-19T19:57:25;18.50;;;15.27;;
32329;SDS011;18807;52.434;13.238;2023-06-19T20:05:29;17.13;;;15.20;;
32329;SDS011;18807;52.434;13.238;2023-06-19T20:13:06;18.00;;;16.27;;
32329;SDS011;18807;52.434;13.238;2023-06-19T20:20:40;15.73;;;14.32;;
32329;SDS011;18807;52.434;13.238;2023-06-19T20:28:15;16.50;;;14.90;;
32329;SDS011;18807;52.434;13.238;2023-06-19T20:35:49;17.17;;;15.55;;
32329;SDS011;18807;52.434;13.238;2023-06-19T20:43:25;17.83;;;16.03;;
32329;SDS011;18807;52.434;13.238;2023-06-19T20:50:59;17.13;;;15.52;;
32329;SDS011;18807;52.434;13.238;2023-06-19T20:58:34;18.53;;;16.37;;
32329;SDS011;18807;52.434;13.238;2023-06-19T21:06:08;18.05;;;16.25;;
32329;SDS011;18807;52.434;13.238;2023-06-19T21:13:43;18.85;;;16.95;;
32329;SDS011;18807;52.434;13.238;2023-06-19T21:21:18;17.98;;;16.15;;
32329;SDS011;18807;52.434;13.238;2023-06-19T21:28:53;18.87;;;17.03;;
32329;SDS011;18807;52.434;13.238;2023-06-19T21:36:27;19.95;;;17.02;;
32329;SDS011;18807;52.434;13.238;2023-06-19T21:44:02;19.20;;;17.27;;
32329;SDS011;18807;52.434;13.238;2023-06-19T21:51:36;19.25;;;17.35;;
32329;SDS011;18807;52.434;13.238;2023-06-19T21:59:12;19.70;;;17.60;;
32329;SDS011;18807;52.434;13.238;2023-06-19T22:06:46;19.80;;;17.70;;
32329;SDS011;18807;52.434;13.238;2023-06-19T22:14:21;18.30;;;16.50;;
32329;SDS011;18807;52.434;13.238;2023-06-19T22:21:55;19.15;;;17.27;;
32329;SDS011;18807;52.434;13.238;2023-06-19T22:29:31;20.03;;;18.03;;
32329;SDS011;18807;52.434;13.238;2023-06-19T22:37:05;19.08;;;17.27;;
32329;SDS011;18807;52.434;13.238;2023-06-19T22:44:41;19.07;;;17.17;;
32329;SDS011;18807;52.434;13.238;2023-06-19T22:52:15;18.80;;;16.98;;
32329;SDS011;18807;52.434;13.238;2023-06-19T22:59:50;19.73;;;17.60;;
32329;SDS011;18807;52.434;13.238;2023-06-19T23:07:24;20.40;;;18.42;;
32329;SDS011;18807;52.434;13.238;2023-06-19T23:15:02;19.35;;;17.35;;
32329;SDS011;18807;52.434;13.238;2023-06-19T23:22:36;19.75;;;17.80;;
32329;SDS011;18807;52.434;13.238;2023-06-19T23:30:12;21.87;;;19.57;;
32329;SDS011;18807;52.434;13.238;2023-06-19T23:37:46;20.52;;;18.33;;
32329;SDS011;18807;52.434;13.238;2023-06-19T23:45:21;20.10;;;18.10;;
32329;SDS011;18807;52.434;13.238;2023-06-19T23:52:58;21.63;;;19.52;;
